Time;durP1;ratioP1;P1;durP2;ratioP2;P2;SDS_P1;SDS_P2;PMS_P1;PMS_P2;Temp;Humidity;BMP_temperature;BMP_pressure;BME280_temperature;BME280_humidity;BME280_pressure;Samples;Min_cycle;Max_cycle;Signal;HPM_P1;HPM_P2
2023/10/01 00:00:09;;;;;;;3.65;2.33;;;;;;;;;;5033650;28;20490;-76
2023/10/01 00:02:37;;;;;;;5.65;2.67;;;;;;;;;;5030361;28;20061;-76
2023/10/01 00:05:08;;;;;;;3.80;2.08;;;;;;;;;;5014612;28;20075;-77
2023/10/01 00:07:38;;;;;;;4.68;2.28;;;;;;;;;;5014488;28;20061;-77
2023/10/01 00:10:10;;;;;;;4.07;2.00;;;;;;;;;;5013874;28;20380;-76
2023/10/01 00:12:38;;;;;;;4.10;2.10;;;;;;;;;;5014504;28;20050;-76
2023/10/01 00:15:08;;;;;;;4.95;2.17;;;;;;;;;;5014085;28;20050;-77
2023/10/01 00:17:38;;;;;;;2.88;2.05;;;;;;;;;;5018770;28;20045;-77
2023/10/01 00:20:12;;;;;;;3.25;2.25;;;;;;;;;;5034060;28;20069;-77
2023/10/01 00:22:39;;;;;;;3.85;1.80;;;;;;;;;;5033816;28;20053;-77
2023/10/01 00:25:07;;;;;;;4.80;2.15;;;;;;;;;;5028381;28;20061;-76
2023/10/01 00:27:33;;;;;;;3.78;1.90;;;;;;;;;;5014267;28;20050;-76
2023/10/01 00:30:00;;;;;;;5.97;2.13;;;;;;;;;;5013947;28;20046;-76
2023/10/01 00:32:29;;;;;;;3.50;2.17;;;;;;;;;;5015385;28;20072;-76
2023/10/01 00:34:58;;;;;;;4.15;2.08;;;;;;;;;;5034056;28;20414;-77
2023/10/01 00:37:25;;;;;;;3.75;1.98;;;;;;;;;;5033709;28;20060;-76
2023/10/01 00:39:55;;;;;;;3.33;2.40;;;;;;;;;;5033533;28;20053;-76
2023/10/01 00:42:24;;;;;;;4.90;2.40;;;;;;;;;;5033748;28;20060;-77
2023/10/01 00:44:54;;;;;;;5.05;2.63;;;;;;;;;;5033848;28;20512;-76
2023/10/01 00:47:24;;;;;;;4.30;2.47;;;;;;;;;;5029307;28;20057;-76
2023/10/01 00:49:54;;;;;;;4.68;1.58;;;;;;;;;;5013791;28;20505;-77
2023/10/01 00:52:23;;;;;;;5.20;2.05;;;;;;;;;;5013547;28;20147;-76
2023/10/01 00:54:51;;;;;;;3.05;2.30;;;;;;;;;;5013604;28;20068;-77
2023/10/01 00:57:20;;;;;;;3.53;2.10;;;;;;;;;;5014031;28;20058;-76
2023/10/01 00:59:47;;;;;;;;;;;;;;;;;;5014279;28;20049;-77
2023/10/01 01:02:15;;;;;;;3.38;1.67;;;;;;;;;;5014671;28;19921;-75
2023/10/01 01:04:45;;;;;;;3.78;2.20;;;;;;;;;;5012938;28;20053;-75
2023/10/01 01:07:19;;;;;;;;;;;;;;;;;;5014092;28;20077;-74
2023/10/01 01:09:48;;;;;;;4.43;2.33;;;;;;;;;;5013171;28;19922;-74
2023/10/01 01:12:16;;;;;;;3.60;1.98;;;;;;;;;;5013573;28;20402;-74
2023/10/01 01:14:44;;;;;;;5.07;2.03;;;;;;;;;;5014358;28;20049;-74
2023/10/01 01:17:11;;;;;;;3.55;2.10;;;;;;;;;;5012643;28;20058;-74
2023/10/01 01:19:38;;;;;;;4.28;2.47;;;;;;;;;;5014102;28;20053;-75
2023/10/01 01:22:05;;;;;;;4.25;2.25;;;;;;;;;;5012713;28;20064;-74
2023/10/01 01:24:33;;;;;;;3.88;2.00;;;;;;;;;;5013322;28;20054;-74
2023/10/01 01:27:06;;;;;;;4.82;2.05;;;;;;;;;;5013140;28;20068;-75
2023/10/01 01:29:40;;;;;;;6.55;2.53;;;;;;;;;;5013004;28;20053;-74
2023/10/01 01:32:13;;;;;;;3.22;2.35;;;;;;;;;;5013517;28;20080;-75
2023/10/01 01:34:41;;;;;;;4.07;2.10;;;;;;;;;;5013032;28;20058;-75
2023/10/01 01:37:09;;;;;;;4.55;2.65;;;;;;;;;;5013015;28;20054;-74
2023/10/01 01:39:48;;;;;;;4.00;2.67;;;;;;;;;;5013138;28;20050;-74
2023/10/01 01:42:19;;;;;;;3.20;2.00;;;;;;;;;;5012720;28;20060;-75
2023/10/01 01:44:47;;;;;;;4.57;2.22;;;;;;;;;;5013041;28;20054;-74
2023/10/01 01:47:15;;;;;;;6.68;3.42;;;;;;;;;;5014178;28;20383;-74
2023/10/01 01:49:43;;;;;;;5.00;2.42;;;;;;;;;;5012763;28;20054;-74
2023/10/01 01:52:13;;;;;;;3.97;2.33;;;;;;;;;;5012921;28;20065;-75
2023/10/01 01:54:45;;;;;;;4.00;2.75;;;;;;;;;;5012888;28;20426;-75
2023/10/01 01:57:13;;;;;;;3.30;1.95;;;;;;;;;;5012878;28;20064;-74
2023/10/01 01:59:41;;;;;;;4.53;2.22;;;;;;;;;;5012807;28;20077;-74
2023/10/01 02:02:09;;;;;;;4.47;2.08;;;;;;;;;;5013522;28;20065;-75
2023/10/01 02:04:58;;;;;;;4.22;2.60;;;;;;;;;;5012675;28;20065;-74
2023/10/01 02:07:23;;;;;;;3.53;2.42;;;;;;;;;;5012618;28;20057;-75
2023/10/01 02:09:51;;;;;;;3.65;1.75;;;;;;;;;;5012441;28;20061;-74
2023/10/01 02:12:24;;;;;;;3.92;2.20;;;;;;;;;;5012664;28;20384;-74
2023/10/01 02:14:54;;;;;;;4.82;2.20;;;;;;;;;;5012731;28;20061;-74
2023/10/01 02:17:25;;;;;;;4.72;2.60;;;;;;;;;;5013094;28;20057;-74
2023/10/01 02:19:55;;;;;;;4.43;2.50;;;;;;;;;;5012580;28;20050;-75
2023/10/01 02:22:24;;;;;;;4.00;2.70;;;;;;;;;;5012832;28;20062;-74
2023/10/01 02:24:58;;;;;;;6.72;2.38;;;;;;;;;;5012326;28;20065;-74
2023/10/01 02:27:28;;;;;;;2.70;1.80;;;;;;;;;;5012639;28;20398;-75
2023/10/01 02:30:16;;;;;;;6.47;2.58;;;;;;;;;;5012382;28;20130;-75
2023/10/01 02:33:15;;;;;;;4.25;2.67;;;;;;;;;;5013583;28;20053;-75
2023/10/01 02:35:41;;;;;;;4.25;1.98;;;;;;;;;;5015975;28;20502;-75
2023/10/01 02:38:11;;;;;;;;;;;;;;;;;;5016865;28;20065;-74
2023/10/01 02:40:57;;;;;;;3.88;2.15;;;;;;;;;;5016306;28;19922;-75
2023/10/01 02:43:26;;;;;;;4.05;2.72;;;;;;;;;;5016643;28;20161;-75
2023/10/01 02:45:52;;;;;;;4.18;2.40;;;;;;;;;;5016416;28;20433;-75
2023/10/01 02:48:19;;;;;;;5.40;2.95;;;;;;;;;;5016575;28;20104;-74
2023/10/01 02:50:45;;;;;;;3.75;1.95;;;;;;;;;;5015993;28;20050;-74
2023/10/01 02:53:13;;;;;;;4.45;2.55;;;;;;;;;;5016394;28;20050;-74
2023/10/01 02:55:44;;;;;;;8.38;2.60;;;;;;;;;;5015723;28;20063;-74
2023/10/01 02:58:19;;;;;;;5.95;2.50;;;;;;;;;;5015853;28;20433;-74
2023/10/01 03:00:50;;;;;;;5.10;2.75;;;;;;;;;;5016603;28;20041;-74
2023/10/01 03:03:18;;;;;;;4.50;2.85;;;;;;;;;;5016049;28;20503;-74
2023/10/01 03:05:46;;;;;;;6.70;2.13;;;;;;;;;;5015750;28;20057;-74
2023/10/01 03:08:40;;;;;;;6.85;2.53;;;;;;;;;;5015180;28;20418;-74
2023/10/01 03:11:06;;;;;;;5.30;2.75;;;;;;;;;;5015455;28;20054;-75
2023/10/01 03:13:32;;;;;;;4.15;2.13;;;;;;;;;;5015288;28;20053;-74
2023/10/01 03:18:47;;;;;;;3.83;2.08;;;;;;;;;;5036550;28;20466;-75
2023/10/01 03:22:12;;;;;;;4.35;1.80;;;;;;;;;;5034910;28;20391;-75
2023/10/01 03:24:00;;;;;;;6.63;3.45;;;;;;;;;;5034766;28;20061;-75
2023/10/01 03:26:32;;;;;;;3.88;2.85;;;;;;;;;;5035190;28;20057;-74
2023/10/01 03:29:17;;;;;;;5.50;2.83;;;;;;;;;;5035079;28;20054;-74
2023/10/01 03:31:46;;;;;;;5.15;2.47;;;;;;;;;;5028474;28;20060;-74
2023/10/01 03:34:28;;;;;;;7.63;3.00;;;;;;;;;;5017999;28;20438;-74
2023/10/01 03:36:58;;;;;;;5.38;2.92;;;;;;;;;;5015096;28;20492;-75
2023/10/01 03:39:26;;;;;;;5.00;1.75;;;;;;;;;;5014957;28;20061;-75
2023/10/01 03:42:10;;;;;;;4.15;2.17;;;;;;;;;;5014940;28;20053;-75
2023/10/01 03:44:59;;;;;;;4.97;2.13;;;;;;;;;;5014867;28;20053;-74
2023/10/01 03:47:34;;;;;;;3.15;2.13;;;;;;;;;;5015908;28;20380;-74
2023/10/01 03:50:04;;;;;;;5.20;2.60;;;;;;;;;;5014662;28;20061;-74
2023/10/01 03:52:39;;;;;;;3.40;2.30;;;;;;;;;;5014951;28;20411;-74
2023/10/01 03:55:25;;;;;;;4.82;2.45;;;;;;;;;;5015024;28;20054;-75
2023/10/01 03:58:05;;;;;;;4.55;2.80;;;;;;;;;;5014913;28;20455;-74
2023/10/01 04:00:34;;;;;;;3.03;2.20;;;;;;;;;;5015509;28;20042;-75
2023/10/01 04:03:06;;;;;;;6.07;3.03;;;;;;;;;;5022708;28;20072;-75
2023/10/01 04:05:34;;;;;;;3.72;2.03;;;;;;;;;;5032658;28;20498;-75
2023/10/01 04:08:07;;;;;;;3.80;2.20;;;;;;;;;;5034651;28;20492;-75
2023/10/01 04:10:34;;;;;;;10.25;3.40;;;;;;;;;;5034213;28;20050;-74
2023/10/01 04:13:12;;;;;;;5.15;2.28;;;;;;;;;;5033898;28;20493;-74
2023/10/01 04:15:46;;;;;;;4.68;2.85;;;;;;;;;;5029186;28;20057;-75
2023/10/01 04:18:21;;;;;;;4.32;1.98;;;;;;;;;;5013710;28;20081;-74
2023/10/01 04:20:49;;;;;;;3.42;2.28;;;;;;;;;;5014295;28;20379;-75
2023/10/01 04:23:24;;;;;;;2.97;1.75;;;;;;;;;;5014403;28;20080;-75
2023/10/01 04:25:51;;;;;;;5.00;2.53;;;;;;;;;;5013681;28;20058;-75
2023/10/01 04:28:19;;;;;;;6.30;3.13;;;;;;;;;;5014405;28;20053;-74
2023/10/01 04:30:51;;;;;;;4.43;2.40;;;;;;;;;;5014608;28;20042;-75
2023/10/01 04:33:23;;;;;;;3.65;1.77;;;;;;;;;;5034144;28;20061;-74
2023/10/01 04:35:55;;;;;;;6.60;3.03;;;;;;;;;;5033557;28;20325;-75
2023/10/01 04:38:22;;;;;;;3.88;2.30;;;;;;;;;;5034015;28;20078;-75
2023/10/01 04:40:50;;;;;;;5.70;2.78;;;;;;;;;;5033294;28;20045;-74
2023/10/01 04:43:19;;;;;;;3.80;2.45;;;;;;;;;;5033754;28;20057;-75
2023/10/01 04:45:46;;;;;;;3.67;2.10;;;;;;;;;;5028479;28;20049;-74
2023/10/01 04:48:22;;;;;;;3.90;2.55;;;;;;;;;;5014266;28;20049;-74
2023/10/01 04:50:50;;;;;;;4.57;2.45;;;;;;;;;;5013462;28;20061;-74
2023/10/01 04:53:20;;;;;;;13.60;3.20;;;;;;;;;;5013853;28;20072;-74
2023/10/01 04:55:57;;;;;;;7.28;2.60;;;;;;;;;;5013413;28;20053;-74
2023/10/01 04:58:26;;;;;;;5.50;2.13;;;;;;;;;;5012939;28;20053;-74
2023/10/01 05:00:55;;;;;;;4.88;2.10;;;;;;;;;;5014397;28;20049;-74
2023/10/01 05:03:36;;;;;;;4.32;1.88;;;;;;;;;;5013801;28;20507;-74
2023/10/01 05:06:04;;;;;;;5.40;2.15;;;;;;;;;;5013549;28;20060;-74
2023/10/01 05:08:38;;;;;;;3.10;1.98;;;;;;;;;;5025170;28;20081;-74
2023/10/01 05:11:05;;;;;;;4.13;2.13;;;;;;;;;;5023739;28;20050;-74
2023/10/01 05:13:34;;;;;;;3.67;2.30;;;;;;;;;;5024862;28;20054;-74
2023/10/01 05:16:06;;;;;;;3.78;2.15;;;;;;;;;;5029352;28;20062;-74
2023/10/01 05:18:33;;;;;;;4.18;2.70;;;;;;;;;;5012721;28;20061;-74
2023/10/01 05:21:04;;;;;;;4.65;2.10;;;;;;;;;;5013284;28;20054;-74
2023/10/01 05:23:32;;;;;;;4.03;1.77;;;;;;;;;;5013111;28;20487;-74
2023/10/01 05:25:59;;;;;;;3.40;1.77;;;;;;;;;;5021477;28;20050;-74
2023/10/01 05:28:34;;;;;;;5.00;1.75;;;;;;;;;;5032394;28;20128;-74
2023/10/01 05:31:05;;;;;;;4.30;2.08;;;;;;;;;;5026880;28;20410;-74
2023/10/01 05:33:33;;;;;;;6.53;2.78;;;;;;;;;;5016575;28;20403;-74
2023/10/01 05:36:03;;;;;;;3.20;1.80;;;;;;;;;;5023257;28;20104;-74
2023/10/01 05:38:34;;;;;;;5.55;2.25;;;;;;;;;;5032505;28;20053;-74
2023/10/01 05:41:03;;;;;;;2.63;1.73;;;;;;;;;;5031741;28;20065;-74
2023/10/01 05:43:35;;;;;;;3.63;1.92;;;;;;;;;;5032373;28;20064;-73
2023/10/01 05:46:02;;;;;;;4.03;2.67;;;;;;;;;;5031884;28;20053;-74
2023/10/01 05:48:30;;;;;;;3.10;1.98;;;;;;;;;;5032258;28;20072;-74
2023/10/01 05:50:58;;;;;;;5.53;2.25;;;;;;;;;;5032418;28;20073;-74
2023/10/01 05:53:26;;;;;;;3.83;1.92;;;;;;;;;;5032224;28;20521;-74
2023/10/01 05:55:54;;;;;;;6.57;2.13;;;;;;;;;;5032659;28;20059;-74
2023/10/01 05:58:21;;;;;;;3.47;1.80;;;;;;;;;;5032923;28;20482;-74
2023/10/01 06:00:56;;;;;;;4.07;1.55;;;;;;;;;;5022597;28;20049;-74
2023/10/01 06:03:24;;;;;;;2.63;1.92;;;;;;;;;;5021618;28;20371;-74
2023/10/01 06:05:57;;;;;;;2.80;1.73;;;;;;;;;;5032129;28;20500;-74
2023/10/01 06:08:25;;;;;;;5.53;1.90;;;;;;;;;;5033098;28;20060;-74
2023/10/01 06:11:04;;;;;;;5.50;2.65;;;;;;;;;;5036578;28;20057;-74
2023/10/01 06:13:31;;;;;;;4.22;2.58;;;;;;;;;;5036152;28;20053;-73
2023/10/01 06:15:58;;;;;;;3.78;1.92;;;;;;;;;;5023845;28;20414;-74
2023/10/01 06:18:25;;;;;;;3.47;1.90;;;;;;;;;;5016282;28;20515;-74
2023/10/01 06:20:53;;;;;;;4.10;2.42;;;;;;;;;;5016566;28;20069;-73
2023/10/01 06:23:20;;;;;;;5.53;2.65;;;;;;;;;;5016790;28;20057;-74
2023/10/01 06:25:53;;;;;;;4.55;2.45;;;;;;;;;;5016702;28;20506;-74
2023/10/01 06:28:23;;;;;;;3.13;1.73;;;;;;;;;;5016722;28;20073;-76
2023/10/01 06:30:50;;;;;;;4.85;2.58;;;;;;;;;;5017421;28;20065;-74
2023/10/01 06:33:29;;;;;;;4.65;2.15;;;;;;;;;;5015946;28;20053;-74
2023/10/01 06:36:16;;;;;;;6.00;2.30;;;;;;;;;;5022350;28;20414;-74
2023/10/01 06:38:45;;;;;;;4.88;2.53;;;;;;;;;;5030168;28;20053;-73
2023/10/01 06:41:16;;;;;;;3.50;1.85;;;;;;;;;;5018213;28;20045;-74
2023/10/01 06:43:54;;;;;;;7.57;2.13;;;;;;;;;;5022477;28;20502;-73
2023/10/01 06:46:22;;;;;;;4.97;2.90;;;;;;;;;;5027338;28;20057;-75
2023/10/01 06:48:50;;;;;;;6.00;2.80;;;;;;;;;;5027536;28;20504;-74
2023/10/01 06:51:19;;;;;;;5.30;2.35;;;;;;;;;;5024131;28;20054;-73
2023/10/01 06:53:47;;;;;;;6.28;2.30;;;;;;;;;;5014888;28;20502;-73
2023/10/01 06:56:16;;;;;;;4.55;2.42;;;;;;;;;;5027772;28;20053;-72
2023/10/01 06:59:12;;;;;;;4.15;2.47;;;;;;;;;;5023299;28;20609;-72
2023/10/01 07:01:46;;;;;;;8.60;2.90;;;;;;;;;;5033547;28;20505;-73
2023/10/01 07:04:15;;;;;;;5.00;2.17;;;;;;;;;;5028068;28;20049;-73
2023/10/01 07:06:44;;;;;;;4.07;2.78;;;;;;;;;;5020849;28;20058;-73
2023/10/01 07:09:24;;;;;;;3.80;2.30;;;;;;;;;;5025212;28;20060;-72
2023/10/01 07:11:51;;;;;;;7.95;2.10;;;;;;;;;;5022524;28;20056;-73
2023/10/01 07:14:30;;;;;;;4.68;2.10;;;;;;;;;;5034437;28;20053;-73
2023/10/01 07:16:57;;;;;;;;;;;;;;;;;;5031498;28;20051;-73
2023/10/01 07:19:24;;;;;;;4.75;2.28;;;;;;;;;;5032442;28;19921;-72
2023/10/01 07:21:56;;;;;;;2.92;1.90;;;;;;;;;;5033491;28;20073;-72
2023/10/01 07:24:23;;;;;;;4.35;1.83;;;;;;;;;;5023848;28;20061;-72
2023/10/01 07:26:50;;;;;;;9.32;2.38;;;;;;;;;;5031447;28;20069;-73
2023/10/01 07:29:18;;;;;;;3.90;1.85;;;;;;;;;;5020803;28;20049;-73
2023/10/01 07:31:46;;;;;;;5.45;2.65;;;;;;;;;;5016654;28;20058;-73
2023/10/01 07:34:13;;;;;;;4.03;2.45;;;;;;;;;;5023893;28;20053;-73
2023/10/01 07:36:42;;;;;;;4.05;2.33;;;;;;;;;;5033278;28;20414;-73
2023/10/01 07:39:09;;;;;;;4.88;2.63;;;;;;;;;;5033604;28;20406;-74
2023/10/01 07:41:38;;;;;;;5.03;2.65;;;;;;;;;;5028968;28;20046;-74
2023/10/01 07:44:08;;;;;;;4.35;2.40;;;;;;;;;;5019075;28;20514;-74
2023/10/01 07:46:34;;;;;;;5.47;2.63;;;;;;;;;;5016306;28;20415;-73
2023/10/01 07:49:04;;;;;;;4.97;2.22;;;;;;;;;;5014600;28;20053;-73
2023/10/01 07:51:36;;;;;;;;;;;;;;;;;;5015562;28;20054;-73
2023/10/01 07:54:09;;;;;;;4.50;3.00;;;;;;;;;;5029241;28;19921;-74
2023/10/01 07:56:37;;;;;;;5.38;2.95;;;;;;;;;;5029539;28;20060;-72
2023/10/01 07:59:28;;;;;;;4.23;2.50;;;;;;;;;;5026821;28;20049;-73
2023/10/01 08:02:09;;;;;;;5.60;3.08;;;;;;;;;;5031009;28;20478;-73
2023/10/01 08:04:51;;;;;;;5.13;2.65;;;;;;;;;;5016448;28;20495;-73
2023/10/01 08:07:22;;;;;;;4.75;2.50;;;;;;;;;;5024831;28;20436;-73
2023/10/01 08:09:52;;;;;;;6.28;2.78;;;;;;;;;;5015939;28;20050;-73
2023/10/01 08:12:19;;;;;;;6.38;3.28;;;;;;;;;;5024765;28;20068;-73
2023/10/01 08:15:15;;;;;;;7.68;3.67;;;;;;;;;;5018607;28;20042;-73
2023/10/01 08:17:34;;;;;;;5.18;2.53;;;;;;;;;;5017180;28;20057;-72
2023/10/01 08:20:14;;;;;;;5.35;2.85;;;;;;;;;;5030193;28;20057;-73
2023/10/01 08:22:43;;;;;;;6.55;3.28;;;;;;;;;;5023385;28;20057;-73
2023/10/01 08:25:12;;;;;;;7.10;3.15;;;;;;;;;;5017691;28;20403;-75
2023/10/01 08:28:08;;;;;;;4.80;2.85;;;;;;;;;;5022570;28;20404;-74
2023/10/01 08:30:38;;;;;;;8.48;3.40;;;;;;;;;;5020499;28;20045;-74
2023/10/01 08:33:18;;;;;;;6.40;3.30;;;;;;;;;;5021669;28;20045;-74
2023/10/01 08:35:56;;;;;;;6.88;2.92;;;;;;;;;;5030093;28;20057;-74
2023/10/01 08:38:24;;;;;;;7.32;3.50;;;;;;;;;;5018250;28;20057;-73
2023/10/01 08:40:52;;;;;;;6.28;3.40;;;;;;;;;;5022472;28;20060;-72
2023/10/01 08:43:21;;;;;;;;;;;;;;;;;;5020964;28;20057;-75
2023/10/01 08:45:47;;;;;;;6.45;3.47;;;;;;;;;;5017417;28;20285;-75
2023/10/01 08:48:17;;;;;;;6.22;3.80;;;;;;;;;;5015522;28;20069;-75
2023/10/01 08:50:45;;;;;;;5.18;3.00;;;;;;;;;;5033278;28;20498;-75
2023/10/01 08:53:14;;;;;;;6.70;3.83;;;;;;;;;;5022331;28;20517;-75
2023/10/01 08:56:04;;;;;;;8.10;3.58;;;;;;;;;;5013681;28;20065;-75
2023/10/01 08:58:41;;;;;;;6.72;3.00;;;;;;;;;;5020606;28;20053;-75
2023/10/01 09:01:12;;;;;;;4.93;3.08;;;;;;;;;;5026004;28;20053;-74
2023/10/01 09:03:39;;;;;;;7.70;3.60;;;;;;;;;;5018101;28;20050;-72
2023/10/01 09:06:08;;;;;;;6.22;3.30;;;;;;;;;;5029721;28;20072;-72
2023/10/01 09:08:43;;;;;;;4.93;2.78;;;;;;;;;;5027655;28;20050;-72
2023/10/01 09:11:12;;;;;;;6.88;3.33;;;;;;;;;;5024163;28;20061;-72
2023/10/01 09:13:45;;;;;;;6.00;3.25;;;;;;;;;;5019341;28;20061;-72
2023/10/01 09:16:12;;;;;;;5.68;3.15;;;;;;;;;;5018674;28;20049;-72
2023/10/01 09:19:03;;;;;;;7.53;3.53;;;;;;;;;;5026225;28;20054;-73
2023/10/01 09:21:38;;;;;;;5.90;3.20;;;;;;;;;;5014201;28;20068;-74
2023/10/01 09:24:33;;;;;;;6.07;3.22;;;;;;;;;;5016575;28;20054;-73
2023/10/01 09:27:08;;;;;;;4.20;2.88;;;;;;;;;;5014301;28;20403;-73
2023/10/01 09:29:43;;;;;;;6.57;2.95;;;;;;;;;;5012924;28;20053;-72
2023/10/01 09:32:11;;;;;;;6.32;3.10;;;;;;;;;;5025246;28;20057;-73
2023/10/01 09:34:46;;;;;;;5.85;3.63;;;;;;;;;;5030692;28;20053;-75
2023/10/01 09:37:33;;;;;;;6.95;3.63;;;;;;;;;;5030231;28;20053;-75
2023/10/01 09:40:12;;;;;;;6.25;3.67;;;;;;;;;;5012994;28;20057;-74
2023/10/01 09:42:44;;;;;;;7.15;3.88;;;;;;;;;;5013276;28;20077;-75
2023/10/01 09:45:26;;;;;;;13.57;4.07;;;;;;;;;;5029864;28;20057;-75
2023/10/01 09:48:02;;;;;;;4.93;2.78;;;;;;;;;;5024857;28;20068;-75
2023/10/01 09:50:30;;;;;;;8.27;4.50;;;;;;;;;;5012642;28;20061;-75
2023/10/01 09:53:00;;;;;;;5.90;3.65;;;;;;;;;;5021184;28;20403;-75
2023/10/01 09:55:29;;;;;;;7.30;3.00;;;;;;;;;;5013063;28;20049;-74
2023/10/01 09:57:56;;;;;;;7.20;3.10;;;;;;;;;;5012308;28;20061;-74
2023/10/01 10:00:39;;;;;;;5.85;3.10;;;;;;;;;;5019642;28;20065;-74
2023/10/01 10:03:09;;;;;;;5.22;2.97;;;;;;;;;;5012850;28;20063;-74
2023/10/01 10:05:39;;;;;;;4.78;3.00;;;;;;;;;;5021740;28;20049;-76
2023/10/01 10:08:15;;;;;;;7.70;2.80;;;;;;;;;;5019019;28;20050;-76
2023/10/01 10:10:48;;;;;;;5.05;3.22;;;;;;;;;;5016935;28;20053;-75
2023/10/01 10:13:33;;;;;;;5.10;3.13;;;;;;;;;;5021888;28;20045;-75
2023/10/01 10:16:00;;;;;;;5.55;3.03;;;;;;;;;;5010824;28;20847;-75
2023/10/01 10:18:32;;;;;;;7.30;3.88;;;;;;;;;;5011505;28;20503;-75
2023/10/01 10:20:59;;;;;;;6.18;3.28;;;;;;;;;;5011661;28;20487;-75
2023/10/01 10:23:32;;;;;;;6.10;3.40;;;;;;;;;;5018443;28;20508;-74
2023/10/01 10:26:13;;;;;;;6.38;3.10;;;;;;;;;;5018623;28;20477;-74
2023/10/01 10:28:55;;;;;;;6.30;2.90;;;;;;;;;;5024319;28;20061;-75
2023/10/01 10:31:32;;;;;;;6.55;3.47;;;;;;;;;;5015635;28;20437;-75
2023/10/01 10:34:21;;;;;;;5.13;3.28;;;;;;;;;;5011058;28;20054;-75
2023/10/01 10:36:51;;;;;;;6.60;3.90;;;;;;;;;;5015755;28;20057;-74
2023/10/01 10:39:53;;;;;;;7.55;3.83;;;;;;;;;;5011568;28;20054;-74
2023/10/01 10:42:28;;;;;;;6.70;3.13;;;;;;;;;;4981922;28;20066;-72
2023/10/01 10:45:19;;;;;;;6.45;3.03;;;;;;;;;;4989578;28;20062;-76
2023/10/01 10:48:07;;;;;;;7.00;3.63;;;;;;;;;;5005199;28;20054;-73
2023/10/01 10:50:56;;;;;;;5.38;2.97;;;;;;;;;;5018289;28;20486;-74
2023/10/01 10:53:26;;;;;;;6.75;3.63;;;;;;;;;;5018080;28;20503;-74
2023/10/01 10:55:53;;;;;;;5.63;3.22;;;;;;;;;;5013365;28;20046;-74
2023/10/01 10:58:24;;;;;;;5.68;2.88;;;;;;;;;;5024076;28;20053;-74
2023/10/01 11:00:51;;;;;;;5.05;3.10;;;;;;;;;;5015739;28;20064;-74
2023/10/01 11:03:38;;;;;;;7.07;3.23;;;;;;;;;;5015906;28;20061;-74
2023/10/01 11:06:18;;;;;;;7.05;3.60;;;;;;;;;;5015394;28;20081;-74
2023/10/01 11:08:54;;;;;;;7.40;3.47;;;;;;;;;;5016038;28;20061;-74
2023/10/01 11:11:24;;;;;;;5.90;3.33;;;;;;;;;;5017911;28;20415;-76
2023/10/01 11:14:00;;;;;;;5.95;3.67;;;;;;;;;;5027237;28;20053;-77
2023/10/01 11:16:33;;;;;;;8.20;3.72;;;;;;;;;;5021069;28;20053;-75
2023/10/01 11:19:12;;;;;;;8.18;4.00;;;;;;;;;;5017004;28;20054;-75
2023/10/01 11:22:01;;;;;;;6.00;2.83;;;;;;;;;;5020428;28;20053;-75
2023/10/01 11:24:32;;;;;;;7.70;3.80;;;;;;;;;;5015917;28;20073;-76
2023/10/01 11:27:11;;;;;;;7.72;3.83;;;;;;;;;;5016121;28;20054;-75
2023/10/01 11:29:40;;;;;;;7.40;3.75;;;;;;;;;;5031434;28;20125;-75
2023/10/01 11:32:06;;;;;;;6.63;3.83;;;;;;;;;;5018325;28;20510;-76
2023/10/01 11:34:45;;;;;;;6.75;3.60;;;;;;;;;;5014633;28;20046;-76
2023/10/01 11:37:16;;;;;;;7.50;3.22;;;;;;;;;;5030504;28;20061;-76
2023/10/01 11:39:49;;;;;;;5.78;3.17;;;;;;;;;;5019585;28;20052;-76
2023/10/01 11:42:26;;;;;;;6.57;2.83;;;;;;;;;;5033396;28;20463;-75
2023/10/01 11:44:55;;;;;;;5.70;3.13;;;;;;;;;;5016524;28;20052;-75
2023/10/01 11:47:33;;;;;;;6.93;3.65;;;;;;;;;;5014807;28;20380;-76
2023/10/01 11:50:23;;;;;;;5.80;3.30;;;;;;;;;;5020936;28;20050;-76
2023/10/01 11:53:02;;;;;;;6.45;3.55;;;;;;;;;;5016402;28;20417;-77
2023/10/01 11:55:33;;;;;;;6.28;3.05;;;;;;;;;;5031638;28;20053;-77
2023/10/01 11:58:00;;;;;;;5.47;3.45;;;;;;;;;;5026016;28;20065;-75
2023/10/01 12:03:18;;;;;;;6.10;3.70;;;;;;;;;;5028334;28;20084;-75
2023/10/01 12:05:47;;;;;;;6.07;3.60;;;;;;;;;;5025586;28;20061;-77
2023/10/01 12:08:18;;;;;;;8.20;3.83;;;;;;;;;;5025585;28;20053;-77
2023/10/01 12:10:44;;;;;;;6.35;3.22;;;;;;;;;;5034056;28;20049;-77
2023/10/01 12:13:13;;;;;;;6.15;3.67;;;;;;;;;;5023775;28;20048;-77
2023/10/01 12:15:51;;;;;;;5.03;3.15;;;;;;;;;;5022687;28;20050;-76
2023/10/01 12:18:17;;;;;;;;;;;;;;;;;;5024396;28;20056;-80
2023/10/01 12:20:47;;;;;;;6.07;3.63;;;;;;;;;;5026726;28;19921;-80
2023/10/01 12:23:16;;;;;;;6.18;3.95;;;;;;;;;;5015367;28;20042;-85
2023/10/01 12:25:46;;;;;;;5.65;3.00;;;;;;;;;;5029568;28;20076;-83
2023/10/01 12:28:18;;;;;;;6.47;4.15;;;;;;;;;;5018151;28;20052;-86
2023/10/01 12:30:57;;;;;;;5.82;3.58;;;;;;;;;;5021909;28;20502;-82
2023/10/01 12:33:38;;;;;;;6.35;3.33;;;;;;;;;;5021449;28;20064;-79
2023/10/01 12:36:11;;;;;;;5.78;3.13;;;;;;;;;;5013835;28;20054;-78
2023/10/01 12:38:37;;;;;;;6.60;3.45;;;;;;;;;;5014227;28;20057;-80
2023/10/01 12:41:05;;;;;;;6.30;3.85;;;;;;;;;;5013981;28;20442;-77
2023/10/01 12:43:38;;;;;;;6.30;3.50;;;;;;;;;;5014919;28;20057;-74
2023/10/01 12:46:08;;;;;;;5.40;3.72;;;;;;;;;;5013478;28;20042;-75
2023/10/01 12:48:38;;;;;;;8.50;3.55;;;;;;;;;;5013729;28;20057;-77
2023/10/01 12:51:07;;;;;;;5.57;3.90;;;;;;;;;;5015667;28;20054;-77
2023/10/01 12:53:34;;;;;;;7.03;3.60;;;;;;;;;;5013836;28;20058;-75
2023/10/01 12:56:02;;;;;;;6.03;3.42;;;;;;;;;;5013573;28;20053;-76
2023/10/01 12:58:39;;;;;;;9.38;3.88;;;;;;;;;;5013287;28;20050;-78
2023/10/01 13:01:07;;;;;;;8.43;3.95;;;;;;;;;;5013739;28;20054;-76
2023/10/01 13:03:42;;;;;;;6.57;3.42;;;;;;;;;;5013506;28;20483;-76
2023/10/01 13:06:12;;;;;;;5.80;3.70;;;;;;;;;;5012893;28;20050;-77
2023/10/01 13:08:42;;;;;;;8.15;4.63;;;;;;;;;;5025633;28;20050;-76
2023/10/01 13:11:43;;;;;;;5.30;3.17;;;;;;;;;;5025556;28;20053;-76
2023/10/01 13:14:16;;;;;;;5.32;3.33;;;;;;;;;;5031851;28;20116;-76
2023/10/01 13:16:52;;;;;;;8.27;3.20;;;;;;;;;;5021889;28;20050;-75
2023/10/01 13:19:23;;;;;;;6.65;4.30;;;;;;;;;;4993347;28;20509;-75
2023/10/01 13:21:50;;;;;;;6.60;3.92;;;;;;;;;;5002264;28;20042;-75
2023/10/01 13:24:20;;;;;;;7.28;3.85;;;;;;;;;;4992991;28;20061;-77
2023/10/01 13:27:05;;;;;;;7.82;3.67;;;;;;;;;;4992191;28;20502;-77
2023/10/01 13:29:32;;;;;;;4.43;3.50;;;;;;;;;;4995882;28;20061;-77
2023/10/01 13:32:03;;;;;;;10.23;4.60;;;;;;;;;;4996032;28;20507;-78
2023/10/01 13:34:48;;;;;;;7.43;3.83;;;;;;;;;;4997548;28;20042;-78
2023/10/01 13:40:14;;;;;;;6.60;3.22;;;;;;;;;;4983520;28;20053;-77
2023/10/01 14:10:15;;;;;;;7.68;3.58;;;;;;;;;;4998433;28;20425;-76
2023/10/01 14:12:54;;;;;;;6.78;3.85;;;;;;;;;;4993023;28;20054;-75
2023/10/01 14:15:25;;;;;;;6.65;3.28;;;;;;;;;;4992717;28;20411;-76
2023/10/01 14:17:53;;;;;;;7.05;3.70;;;;;;;;;;5000504;28;20058;-76
2023/10/01 14:23:03;;;;;;;6.18;3.45;;;;;;;;;;5012528;28;20387;-75
2023/10/01 14:25:30;;;;;;;7.20;3.83;;;;;;;;;;5012496;28;20406;-75
2023/10/01 14:27:59;;;;;;;6.53;3.33;;;;;;;;;;5012626;28;20483;-75
2023/10/01 14:30:25;;;;;;;;;;;;;;;;;;5015115;28;20491;-75
2023/10/01 14:32:54;;;;;;;11.10;3.45;;;;;;;;;;5016182;28;20278;-75
2023/10/01 14:35:25;;;;;;;6.25;3.83;;;;;;;;;;5024553;28;20521;-76
2023/10/01 14:37:55;;;;;;;7.78;3.47;;;;;;;;;;5036030;28;20060;-76
2023/10/01 14:40:23;;;;;;;7.28;3.63;;;;;;;;;;5021080;28;20061;-75
2023/10/01 14:42:58;;;;;;;8.10;4.10;;;;;;;;;;5015953;28;20057;-75
2023/10/01 14:45:32;;;;;;;6.97;3.53;;;;;;;;;;5015442;28;20054;-74
2023/10/01 14:48:06;;;;;;;6.72;3.67;;;;;;;;;;5016303;28;20053;-74
2023/10/01 14:50:40;;;;;;;7.32;3.78;;;;;;;;;;5015688;28;20053;-74
2023/10/01 14:53:08;;;;;;;8.80;4.15;;;;;;;;;;5015694;28;20069;-74
2023/10/01 14:55:41;;;;;;;6.70;3.28;;;;;;;;;;5024256;28;20056;-75
2023/10/01 14:58:12;;;;;;;5.65;3.25;;;;;;;;;;5035952;28;20057;-75
2023/10/01 15:00:49;;;;;;;7.93;4.13;;;;;;;;;;5035546;28;20058;-75
2023/10/01 15:03:16;;;;;;;7.43;4.10;;;;;;;;;;5035747;28;20049;-75
2023/10/01 15:05:45;;;;;;;7.38;3.75;;;;;;;;;;5035328;28;20061;-75
2023/10/01 15:08:11;;;;;;;6.57;3.60;;;;;;;;;;5035543;28;20062;-75
2023/10/01 15:10:49;;;;;;;4.88;3.45;;;;;;;;;;5023357;28;20057;-75
2023/10/01 15:13:16;;;;;;;8.38;3.38;;;;;;;;;;5015619;28;20406;-75
2023/10/01 15:15:42;;;;;;;8.73;4.65;;;;;;;;;;5015760;28;20061;-75
2023/10/01 15:18:17;;;;;;;8.13;4.28;;;;;;;;;;5015156;28;20057;-75
2023/10/01 15:20:50;;;;;;;9.82;4.50;;;;;;;;;;5015047;28;20073;-75
2023/10/01 15:23:18;;;;;;;6.45;3.55;;;;;;;;;;5015146;28;20065;-75
2023/10/01 15:25:45;;;;;;;8.27;4.38;;;;;;;;;;5015515;28;20050;-75
2023/10/01 15:28:15;;;;;;;8.20;4.20;;;;;;;;;;5029957;28;20053;-75
2023/10/01 15:30:45;;;;;;;6.07;3.55;;;;;;;;;;5034918;28;20500;-75
2023/10/01 15:33:15;;;;;;;6.20;3.63;;;;;;;;;;5034998;28;20060;-76
2023/10/01 15:35:48;;;;;;;7.05;3.60;;;;;;;;;;5022123;28;20050;-75
2023/10/01 15:38:26;;;;;;;8.73;4.57;;;;;;;;;;5015178;28;20057;-75
2023/10/01 15:40:54;;;;;;;12.73;4.90;;;;;;;;;;5015229;28;20068;-75
2023/10/01 15:43:21;;;;;;;9.45;4.35;;;;;;;;;;5026212;28;20499;-75
2023/10/01 15:45:48;;;;;;;6.60;3.75;;;;;;;;;;5027759;28;20479;-75
2023/10/01 15:48:17;;;;;;;7.28;3.75;;;;;;;;;;5014819;28;20050;-76
2023/10/01 15:50:46;;;;;;;6.63;3.97;;;;;;;;;;5014347;28;20410;-75
2023/10/01 15:53:21;;;;;;;6.80;3.45;;;;;;;;;;5023634;28;20060;-76